Aeroporto :
LOGIN :

Iscrizione | Disclaimer

   EN    FR    IT 

 










Sommario :    VFR   VFR Marginale   IFR   IFR Intensivo   IFR Molto Intensivo
Visibilità : 
Base nubi : 
>= 8 km
>= 3000ft
5 / 8 km
1000 / 3000 ft
1500m / 5 km
500 / 1000 ft
800 / 1500m
200 / 500 ft
< 800m
< 200 ft
Simboli :   Temporali  Nebbia  Neve Forte  Precipitazioni Forti  Vento > 20 kt
SIGMETs :   Varie  Temporali  Ghiacco  Turbolenza  Onda orograficha  Ceneri Vulcaniche






- Altitudine del aeroporto : 1161 ft
- Codice IATA : RJL


LELO - Logroño-Agoncillo

ULTIMO METAR :
  • 210930Z 27007KT 220V290 9999 SCT044 20/14 Q1019

METARs OBSOLETI :
  • 210900Z 26009KT 240V300 CAVOK 19/14 Q1019
  • 210830Z 28010KT CAVOK 18/15 Q1019
  • 210800Z 28009KT 260V320 CAVOK 17/14 Q1019
  • 210730Z 30005KT 250V350 CAVOK 16/14 Q1019
  • 210700Z 28004KT 250V320 CAVOK 15/14 Q1019

TAF TAF LELO
Valido dal 21 a 09 ore il 22 a 09 ore UTC


210800Z 2109/2209 29008KT 9999 FEW025 SCT030 TX25/2115Z TN12/2206Z
PROB30
TEMPO 2111/2118 FEW025TCU



MetMap, La meteo Aeronautica in un colpo d'occhio ! - Copyright ORBIFLY Dicembre 2007 - Disclaimer

ORBIFLY MET'MAP TEAM :

Programmazione e sviluppo : Alexandra Zaïnal
Concezione : Baudouin d'Aumeries
Aiuto per la programmazione : Marc-Olivier Méhu
Supporto tecnico e logistico : Manuel Goepfert
Aiuto per la traduzione : Arnaldo La Scala

Contatto : metmap@orbifly.com




FONTI E CREDITI :

   NOAA